Flight Track Log - Related Links

Times and Time Zones

All times are in EDT time to prevent confusion due to time zone crossing. See the KAP320 flight status page for this flight to view local times or setup timezone preferences in your user account.

Time Position Orientation Groundspeed Altitude Reporting Facility
EDT Latitude Longitude Course Direction KTS MPH feet Rate Location/Type
Wed 08:39:01 AM 42.3667 -70.9833 124° Southeast 119 137 400  Level KA90
Wed 08:39:49 AM 42.3500 -70.9500 124° Southeast 138 159 1,000 556 Climbing KA90
Wed 08:40:49 AM 42.3333 -70.9167 124° Southeast 134 154 1,400 421 Climbing KA90
Wed 08:41:43 AM 42.3000 -70.8833 144° Southeast 141 162 1,800 476 Climbing KA90
Wed 08:42:55 AM 42.2500 -70.8500 154° Southeast 144 166 2,400 476 Climbing KA90
Wed 08:43:49 AM 42.2167 -70.8333 160° South 145 167 2,800 450 Climbing KA90
Wed 08:44:55 AM 42.1833 -70.8000 143° Southeast 147 169 3,300 450 Climbing KA90
Wed 08:45:49 AM 42.1500 -70.7667 143° Southeast 148 170 3,700 500 Climbing KA90
Wed 08:46:43 AM 42.1167 -70.7500 160° South 151 174 4,200 500 Climbing KA90
Wed 08:47:49 AM 42.0833 -70.7167 143° Southeast 152 175 4,700 455 Climbing KA90
Wed 08:49:00 AM 42.0437 -70.6849 149° Southeast  Level Estimated
Wed 08:56:00 AM 41.8088 -70.4974 149° Southeast  Level Estimated
Wed 08:57:00 AM 41.7752 -70.4708 149° Southeast  Level Estimated
Wed 08:58:00 AM 41.7416 -70.4441 149° Southeast  Level Estimated
Wed 08:59:00 AM 41.7080 -70.4175 149° Southeast  Level Estimated
Wed 09:00:00 AM 41.6745 -70.3909 149° Southeast  Level Estimated
Wed 09:01:00 AM 41.6409 -70.3644 149° Southeast  Level Estimated
Wed 09:02:00 AM 41.6073 -70.3379 149° Southeast  Level Estimated
Wed 09:03:00 AM 41.5736 -70.3114 149° Southeast  Level Estimated
Wed 09:04:00 AM 41.5400 -70.2849 149° Southeast  Level Estimated
Wed 09:05:00 AM 41.5064 -70.2585 150° Southeast  Level Estimated
Wed 09:06:00 AM 41.4728 -70.2320 150° Southeast  Level Estimated
Wed 09:07:00 AM 41.4391 -70.2057 150° Southeast  Level Estimated
Wed 09:08:00 AM 41.4055 -70.1793 150° Southeast  Level Estimated
Wed 09:09:00 AM 41.3718 -70.1530 150° Southeast  Level Estimated
Wed 09:10:00 AM 41.3382 -70.1267 150° Southeast  Level Estimated
Wed 09:11:00 AM 41.3045 -70.1004 150° Southeast  Level Estimated
Wed 09:12:00 AM 41.2709 -70.0741 150° Southeast  Level Estimated
Wed 09:13:00 AM 41.2531 -70.0603 150° Southeast  Level Estimated
Wed 09:14:00 AM 41.2531 -70.0603 72° East  Level Estimated
Wed 09:15:00 AM 41.2531 -70.0603 72° East  Level Estimated
Wed 09:16:00 AM 41.2531 -70.0603 72° East  Level Estimated
Wed 09:17:00 AM 41.2531 -70.0603 72° East  Level Estimated
Wed 09:18:00 AM 41.2531 -70.0603 72° East  Level Estimated

Login

Don't have an account? Register now (free) for customized features, flight alerts, and more!